Time,TemperatureF,DewpointF,PressureIn,WindDirection,WindDirectionDegrees,WindSpeedMPH,WindSpeedGustMPH,Humidity,HourlyPrecipIn,Conditions,Clouds,dailyrainin,SoftwareType,DateUTC
2013-02-08 00:00:00,41.9,-9.3,30.00,North,0,0.0,0.0,11,0.09,,,0.62,WUHU216HW,2013-02-08 05:00:00,
2013-02-08 00:01:00,41.9,-10.7,30.00,North,0,0.0,0.0,9,0.09,,,0.00,WUHU216HW,2013-02-08 05:01:00,
2013-02-08 00:06:00,41.9,-9.3,30.00,North,0,0.0,0.0,11,0.10,,,0.01,WUHU216HW,2013-02-08 05:06:00,
2013-02-08 00:11:00,41.9,-10.7,30.01,North,0,0.0,0.0,10,0.11,,,0.03,WUHU216HW,2013-02-08 05:11:00,
2013-02-08 00:16:00,41.8,-10.8,30.01,North,0,0.0,0.0,8,0.11,,,0.04,WUHU216HW,2013-02-08 05:16:00,
2013-02-08 00:21:00,41.8,-10.8,30.00,North,0,0.0,0.0,9,0.12,,,0.06,WUHU216HW,2013-02-08 05:21:00,
2013-02-08 00:26:00,41.8,-10.8,30.00,North,0,0.0,0.0,9,0.14,,,0.07,WUHU216HW,2013-02-08 05:26:00,
2013-02-08 00:31:00,41.8,-10.8,30.00,North,0,0.0,0.0,9,0.14,,,0.08,WUHU216HW,2013-02-08 05:31:00,
2013-02-08 00:36:00,41.8,-10.8,30.00,North,0,0.0,0.0,9,0.14,,,0.10,WUHU216HW,2013-02-08 05:36:00,
2013-02-08 00:41:00,41.8,-10.8,29.99,North,0,0.0,0.0,10,0.14,,,0.11,WUHU216HW,2013-02-08 05:41:00,
2013-02-08 00:46:00,41.8,-10.8,29.99,North,0,0.0,0.0,10,0.16,,,0.12,WUHU216HW,2013-02-08 05:46:00,
2013-02-08 00:51:00,41.8,-10.8,29.99,North,0,0.0,0.0,9,0.16,,,0.14,WUHU216HW,2013-02-08 05:51:00,
2013-02-08 00:56:00,41.8,-10.8,29.98,North,0,0.0,0.0,7,0.16,,,0.16,WUHU216HW,2013-02-08 05:56:00,
2013-02-08 01:01:00,41.6,-11.0,29.98,North,0,0.0,0.0,7,0.16,,,0.17,WUHU216HW,2013-02-08 06:01:00,
2013-02-08 01:06:00,41.6,-11.0,29.97,North,0,0.0,0.0,7,0.16,,,0.18,WUHU216HW,2013-02-08 06:06:00,
2013-02-08 01:11:00,41.4,-11.1,29.97,North,0,0.0,0.0,9,0.16,,,0.19,WUHU216HW,2013-02-08 06:11:00,
2013-02-08 01:16:00,41.4,-11.1,29.97,North,0,0.0,0.0,7,0.14,,,0.21,WUHU216HW,2013-02-08 06:16:00,
2013-02-08 01:21:00,41.4,-11.1,29.97,North,0,0.0,0.0,9,0.14,,,0.21,WUHU216HW,2013-02-08 06:21:00,
2013-02-08 01:26:00,41.4,-11.1,29.96,North,0,0.0,0.0,8,0.14,,,0.23,WUHU216HW,2013-02-08 06:26:00,
2013-02-08 01:31:00,41.4,-11.1,29.96,North,0,0.0,0.0,9,0.14,,,0.23,WUHU216HW,2013-02-08 06:31:00,
2013-02-08 01:36:00,41.2,-11.2,29.96,North,0,0.0,0.0,7,0.13,,,0.25,WUHU216HW,2013-02-08 06:36:00,
2013-02-08 01:41:00,41.2,-11.2,29.96,North,0,0.0,0.0,9,0.13,,,0.26,WUHU216HW,2013-02-08 06:41:00,
2013-02-08 01:46:00,41.2,-11.2,29.96,North,0,0.0,0.0,9,0.13,,,0.27,WUHU216HW,2013-02-08 06:46:00,
2013-02-08 01:51:00,41.0,-11.3,29.95,North,0,0.0,0.0,7,0.13,,,0.28,WUHU216HW,2013-02-08 06:51:00,
2013-02-08 01:56:00,41.0,-11.3,29.95,North,0,0.0,0.0,9,0.11,,,0.29,WUHU216HW,2013-02-08 06:56:00,
2013-02-08 02:01:00,41.0,-11.3,29.94,North,0,0.0,0.0,7,0.11,,,0.30,WUHU216HW,2013-02-08 07:01:00,
2013-02-08 02:06:00,40.9,-11.5,29.94,North,0,0.0,0.0,7,0.11,,,0.30,WUHU216HW,2013-02-08 07:06:00,
2013-02-08 02:11:00,41.0,-11.3,29.94,North,0,0.0,0.0,7,0.12,,,0.32,WUHU216HW,2013-02-08 07:11:00,
2013-02-08 02:16:00,40.9,-11.5,29.94,North,0,0.0,0.0,7,0.11,,,0.33,WUHU216HW,2013-02-08 07:16:00,
2013-02-08 02:21:00,40.9,-11.5,29.94,North,0,0.0,0.0,7,0.10,,,0.33,WUHU216HW,2013-02-08 07:21:00,
2013-02-08 02:26:00,40.9,-11.5,29.94,North,0,0.0,0.0,7,0.11,,,0.34,WUHU216HW,2013-02-08 07:26:00,
2013-02-08 02:31:00,40.9,-11.5,29.94,North,0,0.0,0.0,7,0.11,,,0.34,WUHU216HW,2013-02-08 07:31:00,
2013-02-08 02:36:00,40.9,-11.5,29.93,North,0,0.0,0.0,7,0.09,,,0.35,WUHU216HW,2013-02-08 07:36:00,
2013-02-08 02:41:00,40.9,-11.5,29.93,North,0,0.0,0.0,7,0.10,,,0.36,WUHU216HW,2013-02-08 07:41:00,
2013-02-08 02:46:00,40.9,-11.5,29.92,North,0,0.0,0.0,7,0.09,,,0.36,WUHU216HW,2013-02-08 07:46:00,
2013-02-08 02:51:00,40.9,-11.5,29.92,North,0,0.0,0.0,7,0.09,,,0.37,WUHU216HW,2013-02-08 07:51:00,
2013-02-08 02:56:00,40.9,-11.5,29.92,North,0,0.0,0.0,7,0.08,,,0.37,WUHU216HW,2013-02-08 07:56:00,
2013-02-08 03:01:00,40.9,-11.5,29.91,North,0,0.0,0.0,7,0.08,,,0.38,WUHU216HW,2013-02-08 08:01:00,
2013-02-08 03:06:00,40.9,-11.5,29.90,North,0,0.0,0.0,7,0.07,,,0.38,WUHU216HW,2013-02-08 08:06:00,
2013-02-08 03:11:00,40.7,-11.6,29.90,North,0,0.0,0.0,7,0.07,,,0.39,WUHU216HW,2013-02-08 08:11:00,
2013-02-08 03:16:00,40.9,-11.5,29.90,North,0,0.0,0.0,7,0.06,,,0.39,WUHU216HW,2013-02-08 08:16:00,
2013-02-08 03:21:00,40.9,-11.5,29.89,North,0,0.0,0.0,7,0.05,,,0.39,WUHU216HW,2013-02-08 08:21:00,
2013-02-08 03:26:00,40.9,-11.5,29.88,North,0,0.0,0.0,7,0.06,,,0.40,WUHU216HW,2013-02-08 08:26:00,
2013-02-08 03:31:00,40.7,-11.6,29.88,North,0,0.0,0.0,7,0.05,,,0.40,WUHU216HW,2013-02-08 08:31:00,
2013-02-08 03:36:00,40.7,-11.6,29.87,North,0,0.0,0.0,7,0.04,,,0.40,WUHU216HW,2013-02-08 08:36:00,
2013-02-08 03:41:00,40.7,-11.6,29.87,North,0,0.0,0.0,7,0.04,,,0.40,WUHU216HW,2013-02-08 08:41:00,
2013-02-08 03:46:00,40.7,-11.6,29.87,North,0,0.0,0.0,7,0.04,,,0.41,WUHU216HW,2013-02-08 08:46:00,
2013-02-08 03:51:00,40.7,-11.6,29.87,North,0,0.0,0.0,7,0.04,,,0.41,WUHU216HW,2013-02-08 08:51:00,
2013-02-08 03:56:00,40.7,-11.6,29.87,North,0,0.0,0.0,7,0.03,,,0.41,WUHU216HW,2013-02-08 08:56:00,
2013-02-08 04:01:00,40.5,-11.8,29.86,North,0,0.0,0.0,7,0.03,,,0.41,WUHU216HW,2013-02-08 09:01:00,
2013-02-08 04:06:00,40.5,-11.8,29.86,North,0,0.0,0.0,7,0.02,,,0.41,WUHU216HW,2013-02-08 09:06:00,
2013-02-08 04:11:00,40.5,-11.8,29.87,North,0,0.0,0.0,7,0.02,,,0.41,WUHU216HW,2013-02-08 09:11:00,
2013-02-08 04:16:00,40.3,-11.9,29.87,North,0,0.0,0.0,7,0.02,,,0.41,WUHU216HW,2013-02-08 09:16:00,
2013-02-08 04:21:00,40.3,-11.9,29.87,North,0,0.0,0.0,7,0.01,,,0.41,WUHU216HW,2013-02-08 09:21:00,
2013-02-08 04:26:00,40.3,-11.9,29.87,North,0,0.0,0.0,8,0.01,,,0.41,WUHU216HW,2013-02-08 09:26:00,
2013-02-08 04:31:00,40.1,-12.1,29.86,North,0,0.0,0.0,7,0.01,,,0.41,WUHU216HW,2013-02-08 09:31:00,
2013-02-08 04:36:00,40.0,-12.2,29.86,North,0,0.0,0.0,8,0.01,,,0.41,WUHU216HW,2013-02-08 09:36:00,
2013-02-08 04:41:00,39.8,-12.3,29.86,North,0,0.0,0.0,7,0.00,,,0.41,WUHU216HW,2013-02-08 09:41:00,
2013-02-08 04:46:00,39.6,-12.5,29.86,North,0,0.0,0.0,7,0.00,,,0.41,WUHU216HW,2013-02-08 09:46:00,
2013-02-08 04:51:00,39.4,-12.6,29.86,North,0,0.0,0.0,7,0.00,,,0.41,WUHU216HW,2013-02-08 09:51:00,
2013-02-08 04:56:00,39.2,-12.8,29.87,North,0,0.0,0.0,9,0.00,,,0.41,WUHU216HW,2013-02-08 09:56:00,
2013-02-08 05:01:00,39.1,-13.0,29.87,North,0,0.0,0.0,9,0.00,,,0.41,WUHU216HW,2013-02-08 10:01:00,
2013-02-08 05:06:00,38.9,-13.0,29.87,North,0,0.0,0.0,9,0.00,,,0.41,WUHU216HW,2013-02-08 10:06:00,
2013-02-08 05:11:00,38.5,-13.3,29.88,North,0,0.0,0.0,8,0.00,,,0.41,WUHU216HW,2013-02-08 10:11:00,
2013-02-08 05:16:00,38.5,-13.3,29.87,North,0,0.0,0.0,7,0.00,,,0.41,WUHU216HW,2013-02-08 10:16:00,
2013-02-08 05:21:00,38.3,-13.5,29.86,North,0,0.0,0.0,7,0.00,,,0.41,WUHU216HW,2013-02-08 10:21:00,
2013-02-08 05:26:00,38.2,-13.7,29.87,North,0,0.0,0.0,8,0.00,,,0.41,WUHU216HW,2013-02-08 10:26:00,
2013-02-08 05:31:00,38.0,-13.8,29.86,North,0,0.0,0.0,8,0.00,,,0.41,WUHU216HW,2013-02-08 10:31:00,
2013-02-08 05:36:00,37.8,-13.9,29.86,North,0,0.0,0.0,7,0.00,,,0.41,WUHU216HW,2013-02-08 10:36:00,
2013-02-08 05:41:00,37.8,-13.9,29.86,North,0,0.0,0.0,7,0.00,,,0.41,WUHU216HW,2013-02-08 10:41:00,
2013-02-08 05:46:00,37.6,-14.0,29.86,North,0,0.0,0.0,7,0.00,,,0.41,WUHU216HW,2013-02-08 10:46:00,
2013-02-08 05:51:00,37.6,-14.0,29.86,North,0,0.0,0.0,7,0.00,,,0.41,WUHU216HW,2013-02-08 10:51:00,
2013-02-08 05:56:00,37.6,-14.0,29.86,North,0,0.0,0.0,7,0.00,,,0.41,WUHU216HW,2013-02-08 10:56:00,
2013-02-08 06:01:00,37.4,-14.2,29.86,North,0,0.0,0.0,7,0.00,,,0.41,WUHU216HW,2013-02-08 11:01:00,
2013-02-08 06:06:00,37.4,-14.2,29.86,North,0,0.0,0.0,7,0.00,,,0.41,WUHU216HW,2013-02-08 11:06:00,
2013-02-08 06:11:00,37.3,-14.4,29.86,North,0,0.0,0.0,7,0.00,,,0.41,WUHU216HW,2013-02-08 11:11:00,
2013-02-08 06:16:00,37.3,-14.4,29.86,North,0,0.0,0.0,7,0.00,,,0.41,WUHU216HW,2013-02-08 11:16:00,
2013-02-08 06:21:00,37.3,-14.4,29.86,North,0,0.0,0.0,7,0.00,,,0.41,WUHU216HW,2013-02-08 11:21:00,
2013-02-08 06:26:00,37.1,-14.5,29.86,North,0,0.0,0.0,7,0.00,,,0.41,WUHU216HW,2013-02-08 11:26:00,
2013-02-08 06:31:00,36.9,-14.7,29.86,North,0,0.0,0.0,7,0.00,,,0.41,WUHU216HW,2013-02-08 11:31:00,
2013-02-08 06:36:00,36.9,-14.7,29.86,North,0,0.0,0.0,7,0.00,,,0.41,WUHU216HW,2013-02-08 11:36:00,
2013-02-08 06:41:00,36.9,-14.7,29.86,North,0,0.0,0.0,7,0.00,,,0.41,WUHU216HW,2013-02-08 11:41:00,
2013-02-08 06:46:00,36.9,-14.7,29.86,North,0,0.0,0.0,7,0.00,,,0.41,WUHU216HW,2013-02-08 11:46:00,
2013-02-08 06:51:00,37.1,-14.5,29.86,North,0,0.0,0.0,7,0.00,,,0.41,WUHU216HW,2013-02-08 11:51:00,
2013-02-08 06:56:00,37.1,-14.5,29.86,North,0,0.0,0.0,7,0.00,,,0.41,WUHU216HW,2013-02-08 11:56:00,
2013-02-08 07:01:00,37.1,-14.5,29.86,North,0,0.0,0.0,7,0.00,,,0.41,WUHU216HW,2013-02-08 12:01:00,
2013-02-08 07:06:00,37.1,-14.5,29.86,North,0,0.0,0.0,8,0.00,,,0.41,WUHU216HW,2013-02-08 12:06:00,
2013-02-08 07:11:00,37.1,-14.5,29.87,North,0,0.0,0.0,9,0.00,,,0.41,WUHU216HW,2013-02-08 12:11:00,
2013-02-08 07:16:00,37.1,-14.5,29.87,North,0,0.0,0.0,7,0.00,,,0.41,WUHU216HW,2013-02-08 12:16:00,
2013-02-08 07:21:00,37.1,-14.5,29.87,North,0,0.0,0.0,7,0.00,,,0.41,WUHU216HW,2013-02-08 12:21:00,
2013-02-08 07:26:00,37.1,-14.5,29.87,North,0,0.0,0.0,7,0.00,,,0.41,WUHU216HW,2013-02-08 12:26:00,
2013-02-08 07:31:00,36.9,-14.7,29.87,North,0,0.0,0.0,7,0.00,,,0.41,WUHU216HW,2013-02-08 12:31:00,
2013-02-08 07:36:00,37.1,-14.5,29.88,North,0,0.0,0.0,7,0.00,,,0.41,WUHU216HW,2013-02-08 12:36:00,
2013-02-08 07:41:00,37.1,-14.5,29.88,North,0,0.0,0.0,7,0.00,,,0.41,WUHU216HW,2013-02-08 12:41:00,
2013-02-08 07:46:00,36.9,-14.7,29.87,North,0,0.0,0.0,7,0.00,,,0.41,WUHU216HW,2013-02-08 12:46:00,
2013-02-08 07:51:00,37.1,-14.5,29.88,North,0,0.0,0.0,7,0.00,,,0.41,WUHU216HW,2013-02-08 12:51:00,
2013-02-08 07:56:00,37.1,-14.5,29.88,North,0,0.0,0.0,7,0.00,,,0.41,WUHU216HW,2013-02-08 12:56:00,
2013-02-08 08:01:00,37.1,-14.5,29.87,North,0,0.0,0.0,7,0.00,,,0.41,WUHU216HW,2013-02-08 13:01:00,
2013-02-08 08:06:00,37.1,-14.5,29.87,North,0,0.0,0.0,7,0.00,,,0.41,WUHU216HW,2013-02-08 13:06:00,
2013-02-08 08:11:00,37.1,-14.5,29.87,North,0,0.0,0.0,7,0.00,,,0.41,WUHU216HW,2013-02-08 13:11:00,
2013-02-08 08:16:00,37.1,-14.5,29.87,North,0,0.0,0.0,7,0.00,,,0.41,WUHU216HW,2013-02-08 13:16:00,
2013-02-08 08:21:00,37.1,-14.5,29.86,North,0,0.0,0.0,7,0.00,,,0.41,WUHU216HW,2013-02-08 13:21:00,
2013-02-08 08:26:00,37.3,-14.4,29.87,North,0,0.0,0.0,7,0.00,,,0.41,WUHU216HW,2013-02-08 13:26:00,
2013-02-08 08:31:00,37.3,-14.4,29.87,North,0,0.0,0.0,7,0.00,,,0.41,WUHU216HW,2013-02-08 13:31:00,
2013-02-08 08:36:00,37.4,-14.2,29.87,North,0,0.0,0.0,7,0.00,,,0.41,WUHU216HW,2013-02-08 13:36:00,
2013-02-08 08:41:00,37.4,-14.2,29.87,North,0,0.0,0.0,7,0.00,,,0.41,WUHU216HW,2013-02-08 13:41:00,
2013-02-08 08:46:00,37.6,-14.0,29.88,North,0,0.0,0.0,7,0.00,,,0.41,WUHU216HW,2013-02-08 13:46:00,
2013-02-08 08:51:00,37.6,-14.0,29.88,North,0,0.0,0.0,7,0.00,,,0.41,WUHU216HW,2013-02-08 13:51:00,
2013-02-08 08:56:00,37.8,-13.9,29.88,North,0,0.0,0.0,7,0.00,,,0.41,WUHU216HW,2013-02-08 13:56:00,
2013-02-08 09:01:00,37.8,-13.9,29.87,North,0,0.0,0.0,7,0.00,,,0.41,WUHU216HW,2013-02-08 14:01:00,
2013-02-08 09:06:00,38.0,-13.8,29.87,North,0,0.0,0.0,7,0.00,,,0.41,WUHU216HW,2013-02-08 14:06:00,
2013-02-08 09:11:00,38.0,-13.8,29.87,North,0,0.0,0.0,7,0.00,,,0.41,WUHU216HW,2013-02-08 14:11:00,
2013-02-08 09:16:00,38.2,-13.7,29.87,North,0,0.0,0.0,7,0.00,,,0.41,WUHU216HW,2013-02-08 14:16:00,
2013-02-08 09:21:00,38.5,-13.3,29.88,North,0,0.0,0.0,7,0.00,,,0.41,WUHU216HW,2013-02-08 14:21:00,
2013-02-08 09:26:00,38.5,-13.3,29.88,North,0,0.0,0.0,9,0.00,,,0.41,WUHU216HW,2013-02-08 14:26:00,
2013-02-08 09:31:00,38.7,-13.2,29.88,North,0,0.0,0.0,10,0.00,,,0.41,WUHU216HW,2013-02-08 14:31:00,
2013-02-08 09:36:00,39.2,-12.8,29.88,North,0,0.0,0.0,7,0.00,,,0.41,WUHU216HW,2013-02-08 14:36:00,
2013-02-08 09:41:00,39.2,-12.8,29.88,North,0,0.0,0.0,9,0.00,,,0.41,WUHU216HW,2013-02-08 14:41:00,
2013-02-08 09:46:00,39.6,-11.1,29.88,North,0,0.0,0.0,11,0.00,,,0.41,WUHU216HW,2013-02-08 14:46:00,
2013-02-08 09:51:00,39.6,-11.1,29.88,North,0,0.0,0.0,11,0.00,,,0.41,WUHU216HW,2013-02-08 14:51:00,
2013-02-08 09:56:00,39.8,-10.9,29.88,North,0,0.0,0.0,11,0.00,,,0.41,WUHU216HW,2013-02-08 14:56:00,
2013-02-08 10:01:00,40.0,-12.2,29.88,North,0,0.0,0.0,10,0.00,,,0.41,WUHU216HW,2013-02-08 15:01:00,
2013-02-08 10:06:00,40.1,-9.2,29.88,North,0,0.0,0.0,12,0.00,,,0.41,WUHU216HW,2013-02-08 15:06:00,
2013-02-08 10:11:00,40.3,-9.1,29.88,North,0,0.0,0.0,12,0.00,,,0.41,WUHU216HW,2013-02-08 15:11:00,
2013-02-08 10:16:00,40.3,-6.2,29.88,North,0,0.0,0.0,14,0.00,,,0.41,WUHU216HW,2013-02-08 15:16:00,
2013-02-08 10:21:00,40.7,-4.4,29.88,North,0,0.0,0.0,15,0.00,,,0.41,WUHU216HW,2013-02-08 15:21:00,
2013-02-08 10:26:00,40.9,-5.8,29.88,North,0,0.0,0.0,14,0.00,,,0.41,WUHU216HW,2013-02-08 15:26:00,
2013-02-08 10:31:00,41.0,-1.3,29.88,North,0,0.0,0.0,17,0.00,,,0.41,WUHU216HW,2013-02-08 15:31:00,
2013-02-08 10:36:00,41.2,-1.1,29.88,North,0,0.0,0.0,17,0.00,,,0.41,WUHU216HW,2013-02-08 15:36:00,
2013-02-08 10:41:00,41.4,5.1,29.88,North,0,0.0,0.0,22,0.00,,,0.41,WUHU216HW,2013-02-08 15:41:00,
2013-02-08 10:46:00,41.8,7.2,29.88,North,0,0.0,0.0,24,0.00,,,0.41,WUHU216HW,2013-02-08 15:46:00,
2013-02-08 10:51:00,42.1,4.0,29.88,North,0,0.0,0.0,20,0.00,,,0.41,WUHU216HW,2013-02-08 15:51:00,
2013-02-08 10:56:00,42.5,13.9,29.88,North,0,0.0,0.0,31,0.00,,,0.41,WUHU216HW,2013-02-08 15:56:00,
2013-02-08 11:01:00,42.1,12.1,29.88,North,0,0.0,0.0,29,0.00,,,0.41,WUHU216HW,2013-02-08 16:01:00,
2013-02-08 11:06:00,42.5,11.4,29.88,North,0,0.0,0.0,28,0.00,,,0.41,WUHU216HW,2013-02-08 16:06:00,
2013-02-08 11:11:00,42.8,8.1,29.87,North,0,0.0,0.0,24,0.00,,,0.41,WUHU216HW,2013-02-08 16:11:00,
2013-02-08 11:16:00,43.0,9.2,29.87,North,0,0.0,0.0,25,0.00,,,0.41,WUHU216HW,2013-02-08 16:16:00,
2013-02-08 11:21:00,43.2,12.1,29.87,North,0,0.0,0.0,28,0.00,,,0.41,WUHU216HW,2013-02-08 16:21:00,
2013-02-08 11:26:00,43.4,14.0,29.87,North,0,0.0,0.0,30,0.00,,,0.41,WUHU216HW,2013-02-08 16:26:00,
2013-02-08 11:31:00,43.9,13.6,29.87,North,0,0.0,0.0,29,0.00,,,0.41,WUHU216HW,2013-02-08 16:31:00,
2013-02-08 11:36:00,44.3,15.5,29.87,North,0,0.0,0.0,31,0.00,,,0.41,WUHU216HW,2013-02-08 16:36:00,
2013-02-08 11:41:00,44.6,17.8,29.88,North,0,0.0,0.0,34,0.00,,,0.41,WUHU216HW,2013-02-08 16:41:00,
2013-02-08 11:46:00,44.8,17.3,29.88,North,0,0.0,0.0,33,0.00,,,0.41,WUHU216HW,2013-02-08 16:46:00,
2013-02-08 11:51:00,45.0,20.8,29.87,North,0,0.0,0.0,38,0.00,,,0.41,WUHU216HW,2013-02-08 16:51:00,
2013-02-08 11:56:00,45.2,20.3,29.87,North,0,0.0,0.0,37,0.00,,,0.41,WUHU216HW,2013-02-08 16:56:00,
2013-02-08 12:02:00,45.5,19.3,29.86,North,0,0.0,0.0,35,0.00,,,0.41,WUHU216HW,2013-02-08 17:02:00,
2013-02-08 12:07:00,46.1,18.5,29.86,North,0,0.0,0.0,33,0.00,,,0.41,WUHU216HW,2013-02-08 17:07:00,
2013-02-08 12:12:00,46.4,20.1,29.85,North,0,0.0,0.0,35,0.00,,,0.41,WUHU216HW,2013-02-08 17:12:00,
2013-02-08 12:17:00,46.6,20.9,29.85,North,0,0.0,0.0,36,0.00,,,0.41,WUHU216HW,2013-02-08 17:17:00,
2013-02-08 12:22:00,47.0,24.4,29.85,North,0,0.0,0.0,41,0.00,,,0.41,WUHU216HW,2013-02-08 17:22:00,
2013-02-08 12:27:00,47.2,26.2,29.84,North,0,0.0,0.0,44,0.00,,,0.41,WUHU216HW,2013-02-08 17:27:00,
2013-02-08 12:32:00,47.5,26.0,29.84,North,0,0.0,0.0,43,0.00,,,0.41,WUHU216HW,2013-02-08 17:32:00,
2013-02-08 12:37:00,47.9,25.7,29.84,North,0,0.0,0.0,42,0.00,,,0.41,WUHU216HW,2013-02-08 17:37:00,
2013-02-08 12:42:00,48.2,28.8,29.84,North,0,0.0,0.0,47,0.00,,,0.41,WUHU216HW,2013-02-08 17:42:00,
2013-02-08 12:47:00,48.6,31.2,29.83,North,0,0.0,0.0,51,0.00,,,0.41,WUHU216HW,2013-02-08 17:47:00,
2013-02-08 12:52:00,48.6,29.2,29.83,North,0,0.0,0.0,47,0.00,,,0.41,WUHU216HW,2013-02-08 17:52:00,
2013-02-08 12:57:00,49.0,29.5,29.84,North,0,0.0,0.0,47,0.00,,,0.41,WUHU216HW,2013-02-08 17:57:00,
2013-02-08 13:02:00,49.1,30.8,29.83,North,0,0.0,0.0,49,0.00,,,0.41,WUHU216HW,2013-02-08 18:02:00,
2013-02-08 13:07:00,49.5,30.6,29.83,North,0,0.0,0.0,48,0.00,,,0.41,WUHU216HW,2013-02-08 18:07:00,
2013-02-08 13:12:00,50.2,31.2,29.83,North,0,0.0,0.0,48,0.00,,,0.41,WUHU216HW,2013-02-08 18:12:00,
2013-02-08 13:17:00,50.6,33.1,29.83,North,0,0.0,0.0,51,0.00,,,0.41,WUHU216HW,2013-02-08 18:17:00,
2013-02-08 13:22:00,50.8,33.8,29.83,North,0,0.0,0.0,52,0.00,,,0.41,WUHU216HW,2013-02-08 18:22:00,
2013-02-08 13:27:00,51.3,34.8,29.83,North,0,0.0,0.0,53,0.00,,,0.41,WUHU216HW,2013-02-08 18:27:00,
2013-02-08 13:32:00,51.5,37.5,29.83,North,0,0.0,0.0,59,0.00,,,0.41,WUHU216HW,2013-02-08 18:32:00,
2013-02-08 13:37:00,51.7,37.3,29.83,North,0,0.0,0.0,58,0.00,,,0.41,WUHU216HW,2013-02-08 18:37:00,
2013-02-08 13:42:00,52.2,37.8,29.83,North,0,0.0,0.0,58,0.00,,,0.41,WUHU216HW,2013-02-08 18:42:00,
2013-02-08 13:47:00,52.2,38.3,29.82,North,0,0.0,0.0,59,0.00,,,0.41,WUHU216HW,2013-02-08 18:47:00,
2013-02-08 13:52:00,52.6,39.1,29.83,North,0,0.0,0.0,60,0.00,,,0.41,WUHU216HW,2013-02-08 18:52:00,
2013-02-08 13:57:00,52.9,39.8,29.82,North,0,0.0,0.0,61,0.00,,,0.41,WUHU216HW,2013-02-08 18:57:00,
2013-02-08 14:02:00,53.1,40.0,29.82,North,0,0.0,0.0,61,0.00,,,0.41,WUHU216HW,2013-02-08 19:02:00,
2013-02-08 14:07:00,53.5,40.0,29.82,North,0,0.0,0.0,60,0.00,,,0.41,WUHU216HW,2013-02-08 19:07:00,
2013-02-08 14:12:00,53.6,41.3,29.82,North,0,0.0,0.0,63,0.00,,,0.41,WUHU216HW,2013-02-08 19:12:00,
2013-02-08 14:17:00,53.3,41.0,29.82,North,0,0.0,0.0,63,0.00,,,0.41,WUHU216HW,2013-02-08 19:17:00,
2013-02-08 14:22:00,53.1,40.4,29.82,North,0,0.0,0.0,62,0.00,,,0.41,WUHU216HW,2013-02-08 19:22:00,
2013-02-08 14:27:00,52.9,40.2,29.82,North,0,0.0,0.0,62,0.00,,,0.41,WUHU216HW,2013-02-08 19:27:00,
2013-02-08 14:32:00,53.1,40.8,29.82,North,0,0.0,0.0,63,0.00,,,0.41,WUHU216HW,2013-02-08 19:32:00,
2013-02-08 14:37:00,52.9,41.1,29.82,North,0,0.0,0.0,64,0.00,,,0.41,WUHU216HW,2013-02-08 19:37:00,
2013-02-08 14:42:00,53.1,40.8,29.82,North,0,0.0,0.0,63,0.00,,,0.41,WUHU216HW,2013-02-08 19:42:00,
2013-02-08 14:47:00,53.1,41.2,29.82,North,0,0.0,0.0,64,0.00,,,0.41,WUHU216HW,2013-02-08 19:47:00,
2013-02-08 14:52:00,53.3,41.4,29.82,North,0,0.0,0.0,64,0.00,,,0.41,WUHU216HW,2013-02-08 19:52:00,
2013-02-08 14:57:00,53.1,40.8,29.82,North,0,0.0,0.0,63,0.00,,,0.41,WUHU216HW,2013-02-08 19:57:00,
2013-02-08 15:02:00,53.3,41.0,29.82,North,0,0.0,0.0,63,0.00,,,0.41,WUHU216HW,2013-02-08 20:02:00,
2013-02-08 15:07:00,53.5,41.6,29.82,North,0,0.0,0.0,64,0.00,,,0.41,WUHU216HW,2013-02-08 20:07:00,
2013-02-08 15:12:00,53.3,41.4,29.82,North,0,0.0,0.0,64,0.00,,,0.41,WUHU216HW,2013-02-08 20:12:00,
2013-02-08 15:17:00,53.3,41.4,29.82,North,0,0.0,0.0,64,0.00,,,0.41,WUHU216HW,2013-02-08 20:17:00,
2013-02-08 15:22:00,53.3,41.4,29.82,North,0,0.0,0.0,64,0.00,,,0.41,WUHU216HW,2013-02-08 20:22:00,
2013-02-08 15:27:00,53.1,41.2,29.82,North,0,0.0,0.0,64,0.00,,,0.41,WUHU216HW,2013-02-08 20:27:00,
2013-02-08 15:32:00,53.1,41.2,29.82,North,0,0.0,0.0,64,0.00,,,0.41,WUHU216HW,2013-02-08 20:32:00,
2013-02-08 15:37:00,53.1,41.2,29.82,North,0,0.0,0.0,64,0.00,,,0.41,WUHU216HW,2013-02-08 20:37:00,
2013-02-08 15:42:00,53.1,40.8,29.82,North,0,0.0,0.0,63,0.00,,,0.41,WUHU216HW,2013-02-08 20:42:00,
2013-02-08 15:47:00,53.1,40.8,29.82,North,0,0.0,0.0,63,0.00,,,0.41,WUHU216HW,2013-02-08 20:47:00,
2013-02-08 15:52:00,53.6,41.0,29.82,North,0,0.0,0.0,62,0.00,,,0.41,WUHU216HW,2013-02-08 20:52:00,
2013-02-08 15:57:00,54.4,42.0,29.82,North,0,0.0,0.0,63,0.00,,,0.41,WUHU216HW,2013-02-08 20:57:00,
2013-02-08 16:02:00,54.4,42.4,29.82,North,0,0.0,0.0,64,0.00,,,0.41,WUHU216HW,2013-02-08 21:02:00,
2013-02-08 16:07:00,54.2,42.2,29.82,North,0,0.0,0.0,64,0.00,,,0.41,WUHU216HW,2013-02-08 21:07:00,
2013-02-08 16:12:00,54.0,42.0,29.82,North,0,0.0,0.0,64,0.00,,,0.41,WUHU216HW,2013-02-08 21:12:00,
2013-02-08 16:17:00,54.0,41.7,29.82,North,0,0.0,0.0,63,0.00,,,0.41,WUHU216HW,2013-02-08 21:17:00,
2013-02-08 16:22:00,54.0,41.7,29.82,North,0,0.0,0.0,63,0.00,,,0.41,WUHU216HW,2013-02-08 21:22:00,
2013-02-08 16:27:00,53.8,41.5,29.82,North,0,0.0,0.0,63,0.00,,,0.41,WUHU216HW,2013-02-08 21:27:00,
2013-02-08 16:32:00,54.0,41.7,29.82,North,0,0.0,0.0,63,0.00,,,0.41,WUHU216HW,2013-02-08 21:32:00,
2013-02-08 16:37:00,53.8,41.1,29.83,North,0,0.0,0.0,62,0.00,,,0.41,WUHU216HW,2013-02-08 21:37:00,
2013-02-08 16:42:00,54.0,41.2,29.83,North,0,0.0,0.0,62,0.00,,,0.41,WUHU216HW,2013-02-08 21:42:00,
2013-02-08 16:47:00,54.2,41.4,29.83,North,0,0.0,0.0,62,0.00,,,0.41,WUHU216HW,2013-02-08 21:47:00,
2013-02-08 16:52:00,54.4,41.6,29.83,North,0,0.0,0.0,62,0.00,,,0.41,WUHU216HW,2013-02-08 21:52:00,
2013-02-08 16:57:00,54.4,41.6,29.83,North,0,0.0,0.0,62,0.00,,,0.41,WUHU216HW,2013-02-08 21:57:00,
2013-02-08 17:02:00,54.0,41.7,29.83,North,0,0.0,0.0,63,0.00,,,0.41,WUHU216HW,2013-02-08 22:02:00,
2013-02-08 17:07:00,54.0,42.0,29.84,North,0,0.0,0.0,64,0.00,,,0.41,WUHU216HW,2013-02-08 22:07:00,
2013-02-08 17:12:00,53.8,41.9,29.84,North,0,0.0,0.0,64,0.00,,,0.41,WUHU216HW,2013-02-08 22:12:00,
2013-02-08 17:17:00,53.8,41.9,29.84,North,0,0.0,0.0,64,0.00,,,0.41,WUHU216HW,2013-02-08 22:17:00,
2013-02-08 17:22:00,53.6,41.8,29.84,North,0,0.0,0.0,64,0.00,,,0.41,WUHU216HW,2013-02-08 22:22:00,
2013-02-08 17:27:00,53.6,41.8,29.85,North,0,0.0,0.0,64,0.00,,,0.41,WUHU216HW,2013-02-08 22:27:00,
2013-02-08 17:32:00,53.5,41.1,29.85,North,0,0.0,0.0,63,0.00,,,0.41,WUHU216HW,2013-02-08 22:32:00,
2013-02-08 17:37:00,53.1,40.8,29.85,North,0,0.0,0.0,63,0.00,,,0.41,WUHU216HW,2013-02-08 22:37:00,
2013-02-08 17:42:00,53.1,41.2,29.85,North,0,0.0,0.0,64,0.00,,,0.41,WUHU216HW,2013-02-08 22:42:00,
2013-02-08 17:47:00,52.9,41.1,29.85,North,0,0.0,0.0,64,0.00,,,0.41,WUHU216HW,2013-02-08 22:47:00,
2013-02-08 17:52:00,52.7,40.1,29.86,North,0,0.0,0.0,62,0.00,,,0.41,WUHU216HW,2013-02-08 22:52:00,
2013-02-08 17:57:00,52.6,40.7,29.86,North,0,0.0,0.0,64,0.00,,,0.41,WUHU216HW,2013-02-08 22:57:00,
2013-02-08 18:02:00,52.2,40.0,29.86,North,0,0.0,0.0,63,0.00,,,0.41,WUHU216HW,2013-02-08 23:02:00,
2013-02-08 18:07:00,52.2,40.3,29.86,North,0,0.0,0.0,64,0.00,,,0.41,WUHU216HW,2013-02-08 23:07:00,
2013-02-08 18:12:00,51.8,38.8,29.86,North,0,0.0,0.0,61,0.00,,,0.41,WUHU216HW,2013-02-08 23:12:00,
2013-02-08 18:17:00,52.0,38.5,29.87,North,0,0.0,0.0,60,0.00,,,0.41,WUHU216HW,2013-02-08 23:17:00,
2013-02-08 18:22:00,52.0,38.5,29.87,North,0,0.0,0.0,60,0.00,,,0.41,WUHU216HW,2013-02-08 23:22:00,
2013-02-08 18:27:00,51.8,36.1,29.88,North,0,0.0,0.0,55,0.00,,,0.41,WUHU216HW,2013-02-08 23:27:00,
2013-02-08 18:32:00,52.0,34.9,29.88,North,0,0.0,0.0,52,0.00,,,0.41,WUHU216HW,2013-02-08 23:32:00,
2013-02-08 18:37:00,51.8,33.8,29.89,North,0,0.0,0.0,50,0.00,,,0.41,WUHU216HW,2013-02-08 23:37:00,
2013-02-08 18:42:00,52.0,34.5,29.90,North,0,0.0,0.0,51,0.00,,,0.41,WUHU216HW,2013-02-08 23:42:00,
2013-02-08 18:47:00,51.7,34.6,29.90,North,0,0.0,0.0,52,0.00,,,0.41,WUHU216HW,2013-02-08 23:47:00,
2013-02-08 18:52:00,51.3,34.8,29.91,North,0,0.0,0.0,53,0.00,,,0.41,WUHU216HW,2013-02-08 23:52:00,
2013-02-08 18:57:00,50.8,34.7,29.91,North,0,0.0,0.0,54,0.00,,,0.41,WUHU216HW,2013-02-08 23:57:00,
2013-02-08 19:02:00,50.4,33.9,29.92,North,0,0.0,0.0,53,0.00,,,0.41,WUHU216HW,2013-02-09 00:02:00,
2013-02-08 19:07:00,50.0,33.6,29.93,North,0,0.0,0.0,53,0.00,,,0.41,WUHU216HW,2013-02-09 00:07:00,
2013-02-08 19:12:00,49.7,33.7,29.93,North,0,0.0,0.0,54,0.00,,,0.41,WUHU216HW,2013-02-09 00:12:00,
2013-02-08 19:17:00,49.3,33.8,29.93,North,0,0.0,0.0,55,0.00,,,0.41,WUHU216HW,2013-02-09 00:17:00,
2013-02-08 19:22:00,49.1,33.7,29.93,North,0,0.0,0.0,55,0.00,,,0.41,WUHU216HW,2013-02-09 00:22:00,
2013-02-08 19:27:00,49.0,33.9,29.94,North,0,0.0,0.0,56,0.00,,,0.41,WUHU216HW,2013-02-09 00:27:00,
2013-02-08 19:32:00,48.6,34.0,29.94,North,0,0.0,0.0,57,0.00,,,0.41,WUHU216HW,2013-02-09 00:32:00,
2013-02-08 19:37:00,48.2,34.2,29.94,North,0,0.0,0.0,58,0.00,,,0.41,WUHU216HW,2013-02-09 00:37:00,
2013-02-08 19:42:00,47.9,34.3,29.94,North,0,0.0,0.0,59,0.00,,,0.41,WUHU216HW,2013-02-09 00:42:00,
2013-02-08 19:47:00,47.5,33.9,29.95,North,0,0.0,0.0,59,0.00,,,0.41,WUHU216HW,2013-02-09 00:47:00,
2013-02-08 19:52:00,47.2,33.6,29.95,North,0,0.0,0.0,59,0.00,,,0.41,WUHU216HW,2013-02-09 00:52:00,
2013-02-08 19:57:00,46.8,32.8,29.96,North,0,0.0,0.0,58,0.00,,,0.41,WUHU216HW,2013-02-09 00:57:00,
2013-02-08 20:02:00,46.6,32.6,29.96,North,0,0.0,0.0,58,0.00,,,0.41,WUHU216HW,2013-02-09 01:02:00,
2013-02-08 20:07:00,46.3,33.1,29.96,North,0,0.0,0.0,60,0.00,,,0.41,WUHU216HW,2013-02-09 01:07:00,
2013-02-08 20:12:00,45.9,32.4,29.97,North,0,0.0,0.0,59,0.00,,,0.41,WUHU216HW,2013-02-09 01:12:00,
2013-02-08 20:17:00,45.7,31.8,29.97,North,0,0.0,0.0,58,0.00,,,0.41,WUHU216HW,2013-02-09 01:17:00,
2013-02-08 20:22:00,45.5,31.6,29.98,North,0,0.0,0.0,58,0.00,,,0.41,WUHU216HW,2013-02-09 01:22:00,
2013-02-08 20:27:00,45.4,31.0,29.98,North,0,0.0,0.0,57,0.00,,,0.41,WUHU216HW,2013-02-09 01:27:00,
2013-02-08 20:32:00,45.2,30.8,29.98,North,0,0.0,0.0,57,0.00,,,0.41,WUHU216HW,2013-02-09 01:32:00,
2013-02-08 20:37:00,45.0,30.7,29.99,North,0,0.0,0.0,57,0.00,,,0.41,WUHU216HW,2013-02-09 01:37:00,
2013-02-08 20:42:00,44.8,30.5,29.99,North,0,0.0,0.0,57,0.00,,,0.41,WUHU216HW,2013-02-09 01:42:00,
2013-02-08 20:47:00,44.6,30.3,29.99,North,0,0.0,0.0,57,0.00,,,0.41,WUHU216HW,2013-02-09 01:47:00,
2013-02-08 20:52:00,44.3,30.0,30.00,North,0,0.0,0.0,57,0.00,,,0.41,WUHU216HW,2013-02-09 01:52:00,
2013-02-08 20:57:00,44.3,30.0,30.00,North,0,0.0,0.0,57,0.00,,,0.41,WUHU216HW,2013-02-09 01:57:00,
2013-02-08 21:02:00,44.1,30.2,30.00,North,0,0.0,0.0,58,0.00,,,0.41,WUHU216HW,2013-02-09 02:02:00,
2013-02-08 21:07:00,43.7,29.9,30.00,North,0,0.0,0.0,58,0.00,,,0.41,WUHU216HW,2013-02-09 02:07:00,
2013-02-08 21:12:00,43.6,29.3,30.01,North,0,0.0,0.0,57,0.00,,,0.41,WUHU216HW,2013-02-09 02:12:00,
2013-02-08 21:17:00,43.6,29.7,30.01,North,0,0.0,0.0,58,0.00,,,0.41,WUHU216HW,2013-02-09 02:17:00,
2013-02-08 21:22:00,43.2,28.9,30.01,North,0,0.0,0.0,57,0.00,,,0.41,WUHU216HW,2013-02-09 02:22:00,
2013-02-08 21:27:00,43.2,29.3,30.01,North,0,0.0,0.0,58,0.00,,,0.41,WUHU216HW,2013-02-09 02:27:00,
2013-02-08 21:32:00,42.8,29.4,30.01,North,0,0.0,0.0,59,0.00,,,0.41,WUHU216HW,2013-02-09 02:32:00,
2013-02-08 21:37:00,42.8,29.4,30.01,North,0,0.0,0.0,59,0.00,,,0.41,WUHU216HW,2013-02-09 02:37:00,
2013-02-08 21:42:00,42.5,29.2,30.01,North,0,0.0,0.0,59,0.00,,,0.41,WUHU216HW,2013-02-09 02:42:00,
2013-02-08 21:47:00,42.5,28.7,30.02,North,0,0.0,0.0,58,0.00,,,0.41,WUHU216HW,2013-02-09 02:47:00,
2013-02-08 21:52:00,42.5,28.7,30.02,North,0,0.0,0.0,58,0.00,,,0.41,WUHU216HW,2013-02-09 02:52:00,
2013-02-08 21:57:00,42.5,28.3,30.03,North,0,0.0,0.0,57,0.00,,,0.41,WUHU216HW,2013-02-09 02:57:00,
2013-02-08 22:02:00,42.7,28.5,30.02,North,0,0.0,0.0,57,0.00,,,0.41,WUHU216HW,2013-02-09 03:02:00,
2013-02-08 22:07:00,42.5,28.3,30.03,North,0,0.0,0.0,57,0.00,,,0.41,WUHU216HW,2013-02-09 03:07:00,
2013-02-08 22:12:00,42.3,28.5,30.03,North,0,0.0,0.0,58,0.00,,,0.41,WUHU216HW,2013-02-09 03:12:00,
2013-02-08 22:17:00,42.3,28.1,30.03,North,0,0.0,0.0,57,0.00,,,0.41,WUHU216HW,2013-02-09 03:17:00,
2013-02-08 22:22:00,42.1,27.9,30.03,North,0,0.0,0.0,57,0.00,,,0.41,WUHU216HW,2013-02-09 03:22:00,
2013-02-08 22:27:00,42.1,28.4,30.03,North,0,0.0,0.0,58,0.00,,,0.41,WUHU216HW,2013-02-09 03:27:00,
2013-02-08 22:32:00,42.1,27.9,30.03,North,0,0.0,0.0,57,0.00,,,0.41,WUHU216HW,2013-02-09 03:32:00,
2013-02-08 22:37:00,41.9,28.2,30.03,North,0,0.0,0.0,58,0.00,,,0.41,WUHU216HW,2013-02-09 03:37:00,
2013-02-08 22:42:00,41.9,28.2,30.04,North,0,0.0,0.0,58,0.00,,,0.41,WUHU216HW,2013-02-09 03:42:00,
2013-02-08 22:47:00,41.8,28.0,30.03,North,0,0.0,0.0,58,0.00,,,0.41,WUHU216HW,2013-02-09 03:47:00,
2013-02-08 22:52:00,41.8,28.0,30.03,North,0,0.0,0.0,58,0.00,,,0.41,WUHU216HW,2013-02-09 03:52:00,
2013-02-08 22:58:00,41.6,28.3,30.03,North,0,0.0,0.0,59,0.00,,,0.41,WUHU216HW,2013-02-09 03:58:00,
2013-02-08 23:03:00,41.6,28.3,30.04,North,0,0.0,0.0,59,0.00,,,0.41,WUHU216HW,2013-02-09 04:03:00,
2013-02-08 23:08:00,41.4,28.6,30.04,North,0,0.0,0.0,60,0.00,,,0.41,WUHU216HW,2013-02-09 04:08:00,
2013-02-08 23:13:00,41.2,28.5,30.04,North,0,0.0,0.0,60,0.00,,,0.41,WUHU216HW,2013-02-09 04:13:00,
2013-02-08 23:18:00,41.0,28.3,30.04,North,0,0.0,0.0,60,0.00,,,0.41,WUHU216HW,2013-02-09 04:18:00,
2013-02-08 23:23:00,40.9,28.4,30.04,North,0,0.0,0.0,61,0.00,,,0.41,WUHU216HW,2013-02-09 04:23:00,
2013-02-08 23:28:00,40.7,28.3,30.04,North,0,0.0,0.0,61,0.00,,,0.41,WUHU216HW,2013-02-09 04:28:00,
2013-02-08 23:33:00,40.3,28.3,30.05,North,0,0.0,0.0,62,0.00,,,0.41,WUHU216HW,2013-02-09 04:33:00,
2013-02-08 23:38:00,40.0,28.4,30.05,North,0,0.0,0.0,63,0.00,,,0.41,WUHU216HW,2013-02-09 04:38:00,
2013-02-08 23:43:00,39.8,28.2,30.05,North,0,0.0,0.0,63,0.00,,,0.41,WUHU216HW,2013-02-09 04:43:00,
2013-02-08 23:48:00,39.6,28.0,30.05,North,0,0.0,0.0,63,0.00,,,0.41,WUHU216HW,2013-02-09 04:48:00,
2013-02-08 23:53:00,39.6,28.0,30.05,North,0,0.0,0.0,63,0.00,,,0.41,WUHU216HW,2013-02-09 04:53:00,
2013-02-08 23:58:00,39.8,28.2,30.05,North,0,0.0,0.0,63,0.00,,,0.41,WUHU216HW,2013-02-09 04:58:00,